sensor_id;sensor_type;location;lat;lon;timestamp;temperature;humidity
41928;DHT22;27616;51.420;6.788;2024-02-21T00:01:39;9.50;99.90
41928;DHT22;27616;51.420;6.788;2024-02-21T00:04:05;9.40;99.90
41928;DHT22;27616;51.420;6.788;2024-02-21T00:06:31;9.40;99.90
41928;DHT22;27616;51.420;6.788;2024-02-21T00:08:57;9.40;99.90
41928;DHT22;27616;51.420;6.788;2024-02-21T00:11:23;9.40;99.90
41928;DHT22;27616;51.420;6.788;2024-02-21T00:13:49;9.40;99.90
41928;DHT22;27616;51.420;6.788;2024-02-21T00:16:16;9.40;99.90
41928;DHT22;27616;51.420;6.788;2024-02-21T00:18:43;9.30;99.90
41928;DHT22;27616;51.420;6.788;2024-02-21T00:21:08;9.30;99.90
41928;DHT22;27616;51.420;6.788;2024-02-21T00:23:34;9.30;99.90
41928;DHT22;27616;51.420;6.788;2024-02-21T00:26:00;9.30;99.90
41928;DHT22;27616;51.420;6.788;2024-02-21T00:28:25;9.30;99.90
41928;DHT22;27616;51.420;6.788;2024-02-21T00:30:51;9.40;99.90
41928;DHT22;27616;51.420;6.788;2024-02-21T00:33:18;9.40;99.90
41928;DHT22;27616;51.420;6.788;2024-02-21T00:35:44;9.40;99.90
41928;DHT22;27616;51.420;6.788;2024-02-21T00:38:10;9.40;99.90
41928;DHT22;27616;51.420;6.788;2024-02-21T00:40:35;9.40;99.90
41928;DHT22;27616;51.420;6.788;2024-02-21T00:43:01;9.40;99.90
41928;DHT22;27616;51.420;6.788;2024-02-21T00:45:27;9.40;99.90
41928;DHT22;27616;51.420;6.788;2024-02-21T00:47:52;9.40;99.90
41928;DHT22;27616;51.420;6.788;2024-02-21T00:50:18;9.40;99.90
41928;DHT22;27616;51.420;6.788;2024-02-21T00:52:44;9.30;99.90
41928;DHT22;27616;51.420;6.788;2024-02-21T00:55:10;9.30;99.90
41928;DHT22;27616;51.420;6.788;2024-02-21T00:57:35;9.30;99.90
41928;DHT22;27616;51.420;6.788;2024-02-21T01:00:03;9.30;99.90
41928;DHT22;27616;51.420;6.788;2024-02-21T01:02:28;9.30;99.90
41928;DHT22;27616;51.420;6.788;2024-02-21T01:04:57;9.20;99.90
41928;DHT22;27616;51.420;6.788;2024-02-21T01:07:23;9.30;99.90
41928;DHT22;27616;51.420;6.788;2024-02-21T01:09:49;9.30;99.90
41928;DHT22;27616;51.420;6.788;2024-02-21T01:12:16;9.30;99.90
41928;DHT22;27616;51.420;6.788;2024-02-21T01:14:42;9.30;99.90
41928;DHT22;27616;51.420;6.788;2024-02-21T01:17:08;9.30;99.90
41928;DHT22;27616;51.420;6.788;2024-02-21T01:19:33;9.30;99.90
41928;DHT22;27616;51.420;6.788;2024-02-21T01:21:59;9.30;99.90
41928;DHT22;27616;51.420;6.788;2024-02-21T01:24:25;9.40;99.90
41928;DHT22;27616;51.420;6.788;2024-02-21T01:26:51;9.30;99.90
41928;DHT22;27616;51.420;6.788;2024-02-21T01:29:16;9.30;99.90
41928;DHT22;27616;51.420;6.788;2024-02-21T01:31:42;9.40;99.90
41928;DHT22;27616;51.420;6.788;2024-02-21T01:34:07;9.40;99.90
41928;DHT22;27616;51.420;6.788;2024-02-21T01:36:33;9.40;99.90
41928;DHT22;27616;51.420;6.788;2024-02-21T01:38:59;9.30;99.90
41928;DHT22;27616;51.420;6.788;2024-02-21T01:41:25;9.30;99.90
41928;DHT22;27616;51.420;6.788;2024-02-21T01:43:50;9.20;99.90
41928;DHT22;27616;51.420;6.788;2024-02-21T01:46:16;9.30;99.90
41928;DHT22;27616;51.420;6.788;2024-02-21T01:48:41;9.30;99.90
41928;DHT22;27616;51.420;6.788;2024-02-21T01:51:07;9.40;99.90
41928;DHT22;27616;51.420;6.788;2024-02-21T01:53:36;9.30;99.90
41928;DHT22;27616;51.420;6.788;2024-02-21T01:56:03;9.30;99.90
41928;DHT22;27616;51.420;6.788;2024-02-21T01:58:31;9.40;99.90
41928;DHT22;27616;51.420;6.788;2024-02-21T02:00:57;9.30;99.90
41928;DHT22;27616;51.420;6.788;2024-02-21T02:03:23;9.30;99.90
41928;DHT22;27616;51.420;6.788;2024-02-21T02:05:51;9.30;99.90
41928;DHT22;27616;51.420;6.788;2024-02-21T02:08:21;9.30;99.90
41928;DHT22;27616;51.420;6.788;2024-02-21T02:10:50;9.30;99.90
41928;DHT22;27616;51.420;6.788;2024-02-21T02:13:15;9.30;99.90
41928;DHT22;27616;51.420;6.788;2024-02-21T02:15:43;9.20;99.90
41928;DHT22;27616;51.420;6.788;2024-02-21T02:18:09;9.20;99.90
41928;DHT22;27616;51.420;6.788;2024-02-21T02:20:36;9.20;99.90
41928;DHT22;27616;51.420;6.788;2024-02-21T02:23:31;9.10;99.90
41928;DHT22;27616;51.420;6.788;2024-02-21T02:25:57;9.10;99.90
41928;DHT22;27616;51.420;6.788;2024-02-21T02:28:24;9.10;99.90
41928;DHT22;27616;51.420;6.788;2024-02-21T02:30:50;9.00;99.90
41928;DHT22;27616;51.420;6.788;2024-02-21T02:33:16;9.00;99.90
41928;DHT22;27616;51.420;6.788;2024-02-21T02:35:45;9.00;99.90
41928;DHT22;27616;51.420;6.788;2024-02-21T02:38:11;9.00;99.90
41928;DHT22;27616;51.420;6.788;2024-02-21T02:40:38;8.90;99.90
41928;DHT22;27616;51.420;6.788;2024-02-21T02:43:03;8.90;99.90
41928;DHT22;27616;51.420;6.788;2024-02-21T02:45:29;8.90;99.90
41928;DHT22;27616;51.420;6.788;2024-02-21T02:47:56;8.90;99.90
41928;DHT22;27616;51.420;6.788;2024-02-21T02:50:26;8.90;99.90
41928;DHT22;27616;51.420;6.788;2024-02-21T02:52:53;8.90;99.90
41928;DHT22;27616;51.420;6.788;2024-02-21T02:55:19;8.90;99.90
41928;DHT22;27616;51.420;6.788;2024-02-21T02:57:44;8.90;99.90
41928;DHT22;27616;51.420;6.788;2024-02-21T03:00:11;8.80;99.90
41928;DHT22;27616;51.420;6.788;2024-02-21T03:02:39;8.80;99.90
41928;DHT22;27616;51.420;6.788;2024-02-21T03:05:19;8.80;99.90
41928;DHT22;27616;51.420;6.788;2024-02-21T03:07:45;8.80;99.90
41928;DHT22;27616;51.420;6.788;2024-02-21T03:10:12;8.70;99.90
41928;DHT22;27616;51.420;6.788;2024-02-21T03:12:38;8.70;99.90
41928;DHT22;27616;51.420;6.788;2024-02-21T03:15:05;8.60;99.90
41928;DHT22;27616;51.420;6.788;2024-02-21T03:17:31;8.60;99.90
41928;DHT22;27616;51.420;6.788;2024-02-21T03:19:58;8.60;99.90
41928;DHT22;27616;51.420;6.788;2024-02-21T03:22:25;8.70;99.90
41928;DHT22;27616;51.420;6.788;2024-02-21T03:24:50;8.80;99.90
41928;DHT22;27616;51.420;6.788;2024-02-21T03:27:16;8.80;99.90
41928;DHT22;27616;51.420;6.788;2024-02-21T03:29:42;8.70;99.90
41928;DHT22;27616;51.420;6.788;2024-02-21T03:32:08;8.60;99.90
41928;DHT22;27616;51.420;6.788;2024-02-21T03:34:33;8.60;99.90
41928;DHT22;27616;51.420;6.788;2024-02-21T03:36:59;8.50;99.90
41928;DHT22;27616;51.420;6.788;2024-02-21T03:39:25;8.60;99.90
41928;DHT22;27616;51.420;6.788;2024-02-21T03:41:51;8.50;99.90
41928;DHT22;27616;51.420;6.788;2024-02-21T03:44:17;8.50;99.90
41928;DHT22;27616;51.420;6.788;2024-02-21T03:46:42;8.50;99.90
41928;DHT22;27616;51.420;6.788;2024-02-21T03:49:08;8.50;99.90
41928;DHT22;27616;51.420;6.788;2024-02-21T03:51:33;8.50;99.90
41928;DHT22;27616;51.420;6.788;2024-02-21T03:53:59;8.60;99.90
41928;DHT22;27616;51.420;6.788;2024-02-21T03:56:25;8.60;99.90
41928;DHT22;27616;51.420;6.788;2024-02-21T03:58:50;8.70;99.90
41928;DHT22;27616;51.420;6.788;2024-02-21T04:01:16;8.70;99.90
41928;DHT22;27616;51.420;6.788;2024-02-21T04:03:43;8.80;99.90
41928;DHT22;27616;51.420;6.788;2024-02-21T04:06:09;8.70;99.90
41928;DHT22;27616;51.420;6.788;2024-02-21T04:08:35;8.70;99.90
41928;DHT22;27616;51.420;6.788;2024-02-21T04:11:00;8.60;99.90
41928;DHT22;27616;51.420;6.788;2024-02-21T04:13:26;8.60;99.90
41928;DHT22;27616;51.420;6.788;2024-02-21T04:15:52;8.60;99.90
41928;DHT22;27616;51.420;6.788;2024-02-21T04:18:17;8.60;99.90
41928;DHT22;27616;51.420;6.788;2024-02-21T04:20:43;8.70;99.90
41928;DHT22;27616;51.420;6.788;2024-02-21T04:23:09;8.70;99.90
41928;DHT22;27616;51.420;6.788;2024-02-21T04:25:35;8.80;99.90
41928;DHT22;27616;51.420;6.788;2024-02-21T04:28:01;8.80;99.90
41928;DHT22;27616;51.420;6.788;2024-02-21T04:30:26;8.80;99.90
41928;DHT22;27616;51.420;6.788;2024-02-21T04:32:52;8.80;99.90
41928;DHT22;27616;51.420;6.788;2024-02-21T04:35:18;8.70;99.90
41928;DHT22;27616;51.420;6.788;2024-02-21T04:37:43;8.70;99.90
41928;DHT22;27616;51.420;6.788;2024-02-21T04:40:10;8.60;99.90
41928;DHT22;27616;51.420;6.788;2024-02-21T04:42:36;8.60;99.90
41928;DHT22;27616;51.420;6.788;2024-02-21T04:45:02;8.70;99.90
41928;DHT22;27616;51.420;6.788;2024-02-21T04:47:28;8.70;99.90
41928;DHT22;27616;51.420;6.788;2024-02-21T04:49:53;8.80;99.90
41928;DHT22;27616;51.420;6.788;2024-02-21T04:52:19;8.70;99.90
41928;DHT22;27616;51.420;6.788;2024-02-21T04:54:45;8.80;99.90
41928;DHT22;27616;51.420;6.788;2024-02-21T04:57:10;8.80;99.90
41928;DHT22;27616;51.420;6.788;2024-02-21T04:59:36;8.80;99.90
41928;DHT22;27616;51.420;6.788;2024-02-21T05:02:02;8.80;99.90
41928;DHT22;27616;51.420;6.788;2024-02-21T05:04:28;8.80;99.90
41928;DHT22;27616;51.420;6.788;2024-02-21T05:06:54;8.80;99.90
41928;DHT22;27616;51.420;6.788;2024-02-21T05:09:20;8.80;99.90
41928;DHT22;27616;51.420;6.788;2024-02-21T05:11:46;8.80;99.90
41928;DHT22;27616;51.420;6.788;2024-02-21T05:14:13;8.80;99.90
41928;DHT22;27616;51.420;6.788;2024-02-21T05:16:39;8.80;99.90
41928;DHT22;27616;51.420;6.788;2024-02-21T05:19:05;8.90;99.90
41928;DHT22;27616;51.420;6.788;2024-02-21T05:21:30;8.90;99.90
41928;DHT22;27616;51.420;6.788;2024-02-21T05:23:56;8.80;99.90
41928;DHT22;27616;51.420;6.788;2024-02-21T05:26:25;8.90;99.90
41928;DHT22;27616;51.420;6.788;2024-02-21T05:28:51;8.80;99.90
41928;DHT22;27616;51.420;6.788;2024-02-21T05:31:20;8.80;99.90
41928;DHT22;27616;51.420;6.788;2024-02-21T05:33:47;8.80;99.90
41928;DHT22;27616;51.420;6.788;2024-02-21T05:36:13;8.80;99.90
41928;DHT22;27616;51.420;6.788;2024-02-21T05:38:39;8.80;99.90
41928;DHT22;27616;51.420;6.788;2024-02-21T05:41:05;8.80;99.90
41928;DHT22;27616;51.420;6.788;2024-02-21T05:43:31;8.90;99.90
41928;DHT22;27616;51.420;6.788;2024-02-21T05:45:57;8.80;99.90
41928;DHT22;27616;51.420;6.788;2024-02-21T05:48:23;8.70;99.90
41928;DHT22;27616;51.420;6.788;2024-02-21T05:50:49;8.70;99.90
41928;DHT22;27616;51.420;6.788;2024-02-21T05:53:15;8.80;99.90
41928;DHT22;27616;51.420;6.788;2024-02-21T05:55:41;8.70;99.90
41928;DHT22;27616;51.420;6.788;2024-02-21T05:58:07;8.80;99.90
41928;DHT22;27616;51.420;6.788;2024-02-21T06:00:33;8.70;99.90
41928;DHT22;27616;51.420;6.788;2024-02-21T06:02:59;8.80;99.90
41928;DHT22;27616;51.420;6.788;2024-02-21T06:05:24;8.80;99.90
41928;DHT22;27616;51.420;6.788;2024-02-21T06:07:50;8.80;99.90
41928;DHT22;27616;51.420;6.788;2024-02-21T06:10:16;8.80;99.90
41928;DHT22;27616;51.420;6.788;2024-02-21T06:12:41;8.80;99.90
41928;DHT22;27616;51.420;6.788;2024-02-21T06:15:07;8.80;99.90
41928;DHT22;27616;51.420;6.788;2024-02-21T06:17:33;8.80;99.90
41928;DHT22;27616;51.420;6.788;2024-02-21T06:19:59;8.70;99.90
41928;DHT22;27616;51.420;6.788;2024-02-21T06:22:24;8.80;99.90
41928;DHT22;27616;51.420;6.788;2024-02-21T06:24:50;8.80;99.90
41928;DHT22;27616;51.420;6.788;2024-02-21T06:27:16;8.80;99.90
41928;DHT22;27616;51.420;6.788;2024-02-21T06:29:42;8.90;99.90
41928;DHT22;27616;51.420;6.788;2024-02-21T06:32:08;8.80;99.90
41928;DHT22;27616;51.420;6.788;2024-02-21T06:34:33;8.90;99.90
41928;DHT22;27616;51.420;6.788;2024-02-21T06:36:59;8.90;99.90
41928;DHT22;27616;51.420;6.788;2024-02-21T06:39:25;8.80;99.90
41928;DHT22;27616;51.420;6.788;2024-02-21T06:41:50;8.80;99.90
41928;DHT22;27616;51.420;6.788;2024-02-21T06:44:17;8.80;99.90
41928;DHT22;27616;51.420;6.788;2024-02-21T06:46:43;8.90;99.90
41928;DHT22;27616;51.420;6.788;2024-02-21T06:49:08;8.80;99.90
41928;DHT22;27616;51.420;6.788;2024-02-21T06:51:34;8.90;99.90
41928;DHT22;27616;51.420;6.788;2024-02-21T06:54:00;8.80;99.90
41928;DHT22;27616;51.420;6.788;2024-02-21T06:56:26;8.80;99.90
41928;DHT22;27616;51.420;6.788;2024-02-21T06:58:57;8.80;99.90
41928;DHT22;27616;51.420;6.788;2024-02-21T07:01:23;8.80;99.90
41928;DHT22;27616;51.420;6.788;2024-02-21T07:03:49;8.80;99.90
41928;DHT22;27616;51.420;6.788;2024-02-21T07:06:15;8.90;99.90
41928;DHT22;27616;51.420;6.788;2024-02-21T07:08:41;8.90;99.90
41928;DHT22;27616;51.420;6.788;2024-02-21T07:11:06;8.90;99.90
41928;DHT22;27616;51.420;6.788;2024-02-21T07:13:32;9.00;99.90
41928;DHT22;27616;51.420;6.788;2024-02-21T07:15:58;9.00;99.90
41928;DHT22;27616;51.420;6.788;2024-02-21T07:18:24;9.00;99.90
41928;DHT22;27616;51.420;6.788;2024-02-21T07:20:51;9.10;99.90
41928;DHT22;27616;51.420;6.788;2024-02-21T07:23:18;9.00;99.90
41928;DHT22;27616;51.420;6.788;2024-02-21T07:25:43;9.10;99.90
41928;DHT22;27616;51.420;6.788;2024-02-21T07:28:09;9.10;99.90
41928;DHT22;27616;51.420;6.788;2024-02-21T07:30:35;9.10;99.90
41928;DHT22;27616;51.420;6.788;2024-02-21T07:33:00;9.00;99.90
41928;DHT22;27616;51.420;6.788;2024-02-21T07:35:26;9.00;99.90
41928;DHT22;27616;51.420;6.788;2024-02-21T07:37:52;9.10;99.90
41928;DHT22;27616;51.420;6.788;2024-02-21T07:40:18;9.10;99.90
41928;DHT22;27616;51.420;6.788;2024-02-21T07:42:44;9.20;99.90
41928;DHT22;27616;51.420;6.788;2024-02-21T07:45:10;9.20;99.90
41928;DHT22;27616;51.420;6.788;2024-02-21T07:47:36;9.20;99.90
41928;DHT22;27616;51.420;6.788;2024-02-21T07:50:03;9.30;99.90
41928;DHT22;27616;51.420;6.788;2024-02-21T07:52:29;9.40;99.90
41928;DHT22;27616;51.420;6.788;2024-02-21T07:54:54;9.30;99.90
41928;DHT22;27616;51.420;6.788;2024-02-21T07:57:20;9.40;99.90
41928;DHT22;27616;51.420;6.788;2024-02-21T07:59:46;9.50;99.90
41928;DHT22;27616;51.420;6.788;2024-02-21T08:02:14;9.50;99.90
41928;DHT22;27616;51.420;6.788;2024-02-21T08:04:39;9.40;99.90
41928;DHT22;27616;51.420;6.788;2024-02-21T08:07:05;9.40;99.90
41928;DHT22;27616;51.420;6.788;2024-02-21T08:09:30;9.40;99.90
41928;DHT22;27616;51.420;6.788;2024-02-21T08:11:56;9.40;99.90
41928;DHT22;27616;51.420;6.788;2024-02-21T08:14:22;9.30;99.90
41928;DHT22;27616;51.420;6.788;2024-02-21T08:16:48;9.40;99.90
41928;DHT22;27616;51.420;6.788;2024-02-21T08:19:13;9.40;99.90
41928;DHT22;27616;51.420;6.788;2024-02-21T08:21:39;9.30;99.90
41928;DHT22;27616;51.420;6.788;2024-02-21T08:24:05;9.30;99.90
41928;DHT22;27616;51.420;6.788;2024-02-21T08:26:30;9.20;99.90
41928;DHT22;27616;51.420;6.788;2024-02-21T08:28:57;9.30;99.90
41928;DHT22;27616;51.420;6.788;2024-02-21T08:31:29;9.20;99.90
41928;DHT22;27616;51.420;6.788;2024-02-21T08:34:00;9.20;99.90
41928;DHT22;27616;51.420;6.788;2024-02-21T08:36:33;9.10;99.90
41928;DHT22;27616;51.420;6.788;2024-02-21T08:38:59;9.10;99.90
41928;DHT22;27616;51.420;6.788;2024-02-21T08:41:25;9.10;99.90
41928;DHT22;27616;51.420;6.788;2024-02-21T08:43:52;9.00;99.90
41928;DHT22;27616;51.420;6.788;2024-02-21T08:46:19;9.10;99.90
41928;DHT22;27616;51.420;6.788;2024-02-21T08:48:46;9.10;99.90
41928;DHT22;27616;51.420;6.788;2024-02-21T08:51:12;9.00;99.90
41928;DHT22;27616;51.420;6.788;2024-02-21T08:53:38;9.00;99.90
41928;DHT22;27616;51.420;6.788;2024-02-21T08:56:05;9.10;99.90
41928;DHT22;27616;51.420;6.788;2024-02-21T08:58:30;9.10;99.90
41928;DHT22;27616;51.420;6.788;2024-02-21T09:00:56;9.10;99.90
41928;DHT22;27616;51.420;6.788;2024-02-21T09:03:22;9.10;99.90
41928;DHT22;27616;51.420;6.788;2024-02-21T09:05:48;9.10;99.90
41928;DHT22;27616;51.420;6.788;2024-02-21T09:08:14;9.20;99.90
41928;DHT22;27616;51.420;6.788;2024-02-21T09:10:40;9.10;99.90
41928;DHT22;27616;51.420;6.788;2024-02-21T09:13:06;9.20;99.90
41928;DHT22;27616;51.420;6.788;2024-02-21T09:15:33;9.20;99.90
41928;DHT22;27616;51.420;6.788;2024-02-21T09:17:59;9.30;99.90
41928;DHT22;27616;51.420;6.788;2024-02-21T09:20:24;9.30;99.90
41928;DHT22;27616;51.420;6.788;2024-02-21T09:22:50;9.30;99.90
41928;DHT22;27616;51.420;6.788;2024-02-21T09:25:16;9.30;99.90
41928;DHT22;27616;51.420;6.788;2024-02-21T09:27:44;9.40;99.90
41928;DHT22;27616;51.420;6.788;2024-02-21T09:30:10;9.40;99.90
41928;DHT22;27616;51.420;6.788;2024-02-21T09:32:35;9.40;99.90
41928;DHT22;27616;51.420;6.788;2024-02-21T09:35:01;9.50;99.90
41928;DHT22;27616;51.420;6.788;2024-02-21T09:37:27;9.50;99.90
41928;DHT22;27616;51.420;6.788;2024-02-21T09:39:53;9.50;99.90
41928;DHT22;27616;51.420;6.788;2024-02-21T09:42:20;9.50;99.90
41928;DHT22;27616;51.420;6.788;2024-02-21T09:44:47;9.50;99.90
41928;DHT22;27616;51.420;6.788;2024-02-21T09:47:33;9.40;99.90
41928;DHT22;27616;51.420;6.788;2024-02-21T09:50:03;9.50;99.90
41928;DHT22;27616;51.420;6.788;2024-02-21T09:52:30;9.50;99.90
41928;DHT22;27616;51.420;6.788;2024-02-21T09:54:58;9.50;99.90
41928;DHT22;27616;51.420;6.788;2024-02-21T09:57:24;9.50;99.90
41928;DHT22;27616;51.420;6.788;2024-02-21T09:59:51;9.50;99.90
41928;DHT22;27616;51.420;6.788;2024-02-21T10:02:48;9.60;99.90
41928;DHT22;27616;51.420;6.788;2024-02-21T10:05:59;9.60;99.90
41928;DHT22;27616;51.420;6.788;2024-02-21T10:08:26;9.60;99.90
41928;DHT22;27616;51.420;6.788;2024-02-21T10:10:52;9.70;99.90
41928;DHT22;27616;51.420;6.788;2024-02-21T10:13:26;9.70;99.90
41928;DHT22;27616;51.420;6.788;2024-02-21T10:16:05;9.70;99.90
41928;DHT22;27616;51.420;6.788;2024-02-21T10:18:31;9.70;99.90
41928;DHT22;27616;51.420;6.788;2024-02-21T10:21:05;9.70;99.90
41928;DHT22;27616;51.420;6.788;2024-02-21T10:23:42;9.70;99.90
41928;DHT22;27616;51.420;6.788;2024-02-21T10:26:08;9.60;99.90
41928;DHT22;27616;51.420;6.788;2024-02-21T10:28:34;9.60;99.90
41928;DHT22;27616;51.420;6.788;2024-02-21T10:30:59;9.60;99.90
41928;DHT22;27616;51.420;6.788;2024-02-21T10:33:25;9.70;99.90
41928;DHT22;27616;51.420;6.788;2024-02-21T10:35:53;9.70;99.90
41928;DHT22;27616;51.420;6.788;2024-02-21T10:38:19;9.80;99.90
41928;DHT22;27616;51.420;6.788;2024-02-21T10:40:46;9.80;99.90
41928;DHT22;27616;51.420;6.788;2024-02-21T10:43:14;9.80;99.90
41928;DHT22;27616;51.420;6.788;2024-02-21T10:45:41;9.90;99.90
41928;DHT22;27616;51.420;6.788;2024-02-21T10:48:13;9.90;99.90
41928;DHT22;27616;51.420;6.788;2024-02-21T10:51:03;10.00;99.90
41928;DHT22;27616;51.420;6.788;2024-02-21T10:53:42;10.00;99.90
41928;DHT22;27616;51.420;6.788;2024-02-21T10:58:49;10.20;99.90
41928;DHT22;27616;51.420;6.788;2024-02-21T11:01:15;10.20;99.90
41928;DHT22;27616;51.420;6.788;2024-02-21T11:03:45;10.30;99.90
41928;DHT22;27616;51.420;6.788;2024-02-21T11:06:12;10.30;99.90
41928;DHT22;27616;51.420;6.788;2024-02-21T11:08:38;10.30;99.90
41928;DHT22;27616;51.420;6.788;2024-02-21T11:11:05;10.30;99.90
41928;DHT22;27616;51.420;6.788;2024-02-21T11:13:37;10.30;99.90
41928;DHT22;27616;51.420;6.788;2024-02-21T11:16:10;10.30;99.90
41928;DHT22;27616;51.420;6.788;2024-02-21T11:18:39;10.40;99.90
41928;DHT22;27616;51.420;6.788;2024-02-21T11:21:04;10.40;99.90
41928;DHT22;27616;51.420;6.788;2024-02-21T11:23:31;10.50;99.90
41928;DHT22;27616;51.420;6.788;2024-02-21T11:26:10;10.50;99.90
41928;DHT22;27616;51.420;6.788;2024-02-21T11:28:36;10.60;99.90
41928;DHT22;27616;51.420;6.788;2024-02-21T11:31:11;10.70;99.90
41928;DHT22;27616;51.420;6.788;2024-02-21T11:33:40;10.80;99.90
41928;DHT22;27616;51.420;6.788;2024-02-21T11:36:08;10.70;99.90
41928;DHT22;27616;51.420;6.788;2024-02-21T11:38:33;10.80;99.90
41928;DHT22;27616;51.420;6.788;2024-02-21T11:40:59;10.80;99.90
41928;DHT22;27616;51.420;6.788;2024-02-21T11:43:25;10.80;99.90
41928;DHT22;27616;51.420;6.788;2024-02-21T11:45:58;10.80;99.90
41928;DHT22;27616;51.420;6.788;2024-02-21T11:48:24;10.90;99.90
41928;DHT22;27616;51.420;6.788;2024-02-21T11:50:54;10.80;99.90
41928;DHT22;27616;51.420;6.788;2024-02-21T11:53:20;10.90;99.90
41928;DHT22;27616;51.420;6.788;2024-02-21T11:55:46;11.00;99.90
41928;DHT22;27616;51.420;6.788;2024-02-21T11:58:12;11.00;99.90
41928;DHT22;27616;51.420;6.788;2024-02-21T12:00:37;11.10;99.90
41928;DHT22;27616;51.420;6.788;2024-02-21T12:03:04;11.00;99.90
41928;DHT22;27616;51.420;6.788;2024-02-21T12:05:30;11.00;99.90
41928;DHT22;27616;51.420;6.788;2024-02-21T12:07:56;11.00;99.90
41928;DHT22;27616;51.420;6.788;2024-02-21T12:10:23;10.90;99.90
41928;DHT22;27616;51.420;6.788;2024-02-21T12:12:49;10.80;99.90
41928;DHT22;27616;51.420;6.788;2024-02-21T12:15:18;10.80;99.90
41928;DHT22;27616;51.420;6.788;2024-02-21T12:17:44;10.90;99.90
41928;DHT22;27616;51.420;6.788;2024-02-21T12:20:10;10.90;99.90
41928;DHT22;27616;51.420;6.788;2024-02-21T12:22:39;10.90;99.90
41928;DHT22;27616;51.420;6.788;2024-02-21T12:25:33;11.00;99.90
41928;DHT22;27616;51.420;6.788;2024-02-21T12:27:59;11.00;99.90
41928;DHT22;27616;51.420;6.788;2024-02-21T12:30:26;11.00;99.90
41928;DHT22;27616;51.420;6.788;2024-02-21T12:32:52;11.00;99.90
41928;DHT22;27616;51.420;6.788;2024-02-21T12:35:17;11.10;99.90
41928;DHT22;27616;51.420;6.788;2024-02-21T12:37:44;11.20;99.90
41928;DHT22;27616;51.420;6.788;2024-02-21T12:40:10;11.30;99.90
41928;DHT22;27616;51.420;6.788;2024-02-21T12:42:36;11.40;99.90
41928;DHT22;27616;51.420;6.788;2024-02-21T12:45:02;11.60;99.90
41928;DHT22;27616;51.420;6.788;2024-02-21T12:47:31;11.70;99.90
41928;DHT22;27616;51.420;6.788;2024-02-21T12:49:56;11.80;99.90
41928;DHT22;27616;51.420;6.788;2024-02-21T12:52:22;12.00;99.90
41928;DHT22;27616;51.420;6.788;2024-02-21T12:54:49;12.10;99.90
41928;DHT22;27616;51.420;6.788;2024-02-21T12:57:16;12.30;99.90
41928;DHT22;27616;51.420;6.788;2024-02-21T12:59:41;12.30;99.90
41928;DHT22;27616;51.420;6.788;2024-02-21T13:02:07;12.30;99.90
41928;DHT22;27616;51.420;6.788;2024-02-21T13:04:34;12.40;99.90
41928;DHT22;27616;51.420;6.788;2024-02-21T13:06:59;12.40;99.90
41928;DHT22;27616;51.420;6.788;2024-02-21T13:09:25;12.30;99.90
41928;DHT22;27616;51.420;6.788;2024-02-21T13:11:51;12.30;99.90
41928;DHT22;27616;51.420;6.788;2024-02-21T13:14:17;12.40;99.90
41928;DHT22;27616;51.420;6.788;2024-02-21T13:16:42;12.40;99.90
41928;DHT22;27616;51.420;6.788;2024-02-21T13:19:09;12.50;99.90
41928;DHT22;27616;51.420;6.788;2024-02-21T13:21:35;12.60;99.90
41928;DHT22;27616;51.420;6.788;2024-02-21T13:24:01;12.70;99.90
41928;DHT22;27616;51.420;6.788;2024-02-21T13:26:27;12.70;99.90
41928;DHT22;27616;51.420;6.788;2024-02-21T13:28:53;12.80;99.90
41928;DHT22;27616;51.420;6.788;2024-02-21T13:31:18;12.80;99.90
41928;DHT22;27616;51.420;6.788;2024-02-21T13:33:44;12.80;99.90
41928;DHT22;27616;51.420;6.788;2024-02-21T13:36:10;12.80;99.90
41928;DHT22;27616;51.420;6.788;2024-02-21T13:38:36;12.80;99.90
41928;DHT22;27616;51.420;6.788;2024-02-21T13:41:01;12.60;99.90
41928;DHT22;27616;51.420;6.788;2024-02-21T13:43:27;12.50;99.90
41928;DHT22;27616;51.420;6.788;2024-02-21T13:45:58;12.50;99.90
41928;DHT22;27616;51.420;6.788;2024-02-21T13:48:24;12.50;99.90
41928;DHT22;27616;51.420;6.788;2024-02-21T13:50:50;12.50;99.90
41928;DHT22;27616;51.420;6.788;2024-02-21T13:53:16;12.40;99.90
41928;DHT22;27616;51.420;6.788;2024-02-21T13:55:47;12.40;99.90
41928;DHT22;27616;51.420;6.788;2024-02-21T13:58:13;12.40;99.90
41928;DHT22;27616;51.420;6.788;2024-02-21T14:00:39;12.40;99.90
41928;DHT22;27616;51.420;6.788;2024-02-21T14:03:05;12.30;99.90
41928;DHT22;27616;51.420;6.788;2024-02-21T14:05:30;12.20;99.90
41928;DHT22;27616;51.420;6.788;2024-02-21T14:07:56;12.10;99.90
41928;DHT22;27616;51.420;6.788;2024-02-21T14:10:22;12.10;99.90
41928;DHT22;27616;51.420;6.788;2024-02-21T14:12:48;12.10;99.90
41928;DHT22;27616;51.420;6.788;2024-02-21T14:15:14;12.10;99.90
41928;DHT22;27616;51.420;6.788;2024-02-21T14:17:40;12.10;99.90
41928;DHT22;27616;51.420;6.788;2024-02-21T14:20:09;12.20;99.90
41928;DHT22;27616;51.420;6.788;2024-02-21T14:22:35;12.20;99.90
41928;DHT22;27616;51.420;6.788;2024-02-21T14:25:03;12.20;99.90
41928;DHT22;27616;51.420;6.788;2024-02-21T14:27:31;12.30;99.90
41928;DHT22;27616;51.420;6.788;2024-02-21T14:29:56;12.30;99.90
41928;DHT22;27616;51.420;6.788;2024-02-21T14:32:22;12.40;99.90
41928;DHT22;27616;51.420;6.788;2024-02-21T14:34:49;12.30;99.90
41928;DHT22;27616;51.420;6.788;2024-02-21T14:37:15;12.30;99.90
41928;DHT22;27616;51.420;6.788;2024-02-21T14:39:41;12.20;99.90
41928;DHT22;27616;51.420;6.788;2024-02-21T14:42:07;12.20;99.90
41928;DHT22;27616;51.420;6.788;2024-02-21T14:44:35;12.20;99.90
41928;DHT22;27616;51.420;6.788;2024-02-21T14:47:01;12.20;99.90
41928;DHT22;27616;51.420;6.788;2024-02-21T14:49:29;12.20;99.90
41928;DHT22;27616;51.420;6.788;2024-02-21T14:51:54;12.10;99.90
41928;DHT22;27616;51.420;6.788;2024-02-21T14:54:20;12.10;99.90
41928;DHT22;27616;51.420;6.788;2024-02-21T14:56:46;12.10;99.90
41928;DHT22;27616;51.420;6.788;2024-02-21T14:59:12;12.00;99.90
41928;DHT22;27616;51.420;6.788;2024-02-21T15:01:38;12.00;99.90
41928;DHT22;27616;51.420;6.788;2024-02-21T15:04:04;12.00;99.90
41928;DHT22;27616;51.420;6.788;2024-02-21T15:06:30;12.00;99.90
41928;DHT22;27616;51.420;6.788;2024-02-21T15:08:57;11.90;99.90
41928;DHT22;27616;51.420;6.788;2024-02-21T15:11:23;11.90;99.90
41928;DHT22;27616;51.420;6.788;2024-02-21T15:13:49;11.90;99.90
41928;DHT22;27616;51.420;6.788;2024-02-21T15:16:14;11.90;99.90
41928;DHT22;27616;51.420;6.788;2024-02-21T15:18:41;11.90;99.90
41928;DHT22;27616;51.420;6.788;2024-02-21T15:21:07;11.90;99.90
41928;DHT22;27616;51.420;6.788;2024-02-21T15:23:36;11.80;99.90
41928;DHT22;27616;51.420;6.788;2024-02-21T15:26:01;11.80;99.90
41928;DHT22;27616;51.420;6.788;2024-02-21T15:28:27;11.80;99.90
41928;DHT22;27616;51.420;6.788;2024-02-21T15:30:54;11.70;99.90
41928;DHT22;27616;51.420;6.788;2024-02-21T15:33:20;11.70;99.90
41928;DHT22;27616;51.420;6.788;2024-02-21T15:35:45;11.70;99.90
41928;DHT22;27616;51.420;6.788;2024-02-21T15:38:11;11.60;99.90
41928;DHT22;27616;51.420;6.788;2024-02-21T15:40:36;11.60;99.90
41928;DHT22;27616;51.420;6.788;2024-02-21T15:43:03;11.60;99.90